Login to view Products
 
Saturday, April 13, 2024 (03:28 UTC)
Sharjah International Airport
ICAO: OMSJ
IATA: SHJ
  • METAR OMSJ 130330Z 16007KT CAVOK 26/18 Q1007 NOSIG=
  • TAF OMSJ 122300Z 1300/1406 22007KT 8000 NSC BECMG 1304/1306 28014KT PROB30 TEMPO 1306/1401 VRB18G28KT 4000 SHRA FEW040TCU BECMG 1316/1318 21005KT=
03-- D:\Input Parser\Destinations\Final\23\OMSJ_TAF.txt-- 12/04/2024-- 13/04/2024-- 3